Time;durP1;ratioP1;P1;durP2;ratioP2;P2;SDS_P1;SDS_P2;PMS_P1;PMS_P2;Temp;Humidity;BMP_temperature;BMP_pressure;BME280_temperature;BME280_humidity;BME280_pressure;Samples;Min_cycle;Max_cycle;Signal;HPM_P1;HPM_P2
2022/02/23 00:01:33;;;;;;;2.97;1.70;;;7.20;97.30;;;;;;5037159;28;20501;-92
2022/02/23 00:03:59;;;;;;;12.00;2.83;;;7.10;97.30;;;;;;5037326;28;20453;-92
2022/02/23 00:06:28;;;;;;;9.70;2.53;;;7.10;97.30;;;;;;5037345;28;20168;-92
2022/02/23 00:08:56;;;;;;;13.53;2.40;;;7.00;97.30;;;;;;5036912;28;20635;-92
2022/02/23 00:11:22;;;;;;;11.53;2.70;;;6.90;97.30;;;;;;5036938;28;20419;-92
2022/02/23 00:14:00;;;;;;;10.23;2.87;;;6.80;97.30;;;;;;5037397;28;20738;-92
2022/02/23 00:16:26;;;;;;;5.80;2.13;;;6.80;97.30;;;;;;5036766;28;20436;-91
2022/02/23 00:18:51;;;;;;;10.00;2.37;;;6.80;97.30;;;;;;5036769;28;20908;-91
2022/02/23 00:21:17;;;;;;;11.60;1.80;;;6.70;97.30;;;;;;5036913;28;20686;-92
2022/02/23 00:23:50;;;;;;;10.47;2.10;;;6.70;97.30;;;;;;5036933;28;20211;-92
2022/02/23 00:26:15;;;;;;;15.60;2.33;;;6.70;97.30;;;;;;5037464;28;20787;-91
2022/02/23 00:28:41;;;;;;;6.17;2.10;;;6.60;97.30;;;;;;5036964;28;20517;-91
2022/02/23 00:31:07;;;;;;;9.70;3.07;;;6.60;97.30;;;;;;5054751;28;20217;-91
2022/02/23 00:33:32;;;;;;;4.70;2.53;;;6.50;97.30;;;;;;5036682;28;20832;-92
2022/02/23 00:35:58;;;;;;;9.70;2.27;;;6.50;97.30;;;;;;5036615;28;20712;-91
2022/02/23 00:38:23;;;;;;;7.50;2.03;;;6.50;97.30;;;;;;5036674;28;20872;-92
2022/02/23 00:40:49;;;;;;;2.70;1.97;;;6.40;97.30;;;;;;5035589;28;20242;-92
2022/02/23 00:43:14;;;;;;;10.53;2.10;;;6.40;97.30;;;;;;5036448;28;20203;-92
2022/02/23 00:45:40;;;;;;;6.93;2.07;;;6.30;97.30;;;;;;5036650;28;20326;-92
2022/02/23 00:48:05;;;;;;;6.67;2.90;;;6.30;97.30;;;;;;5036263;28;20232;-91
2022/02/23 00:50:31;;;;;;;14.97;1.97;;;6.30;97.30;;;;;;5036648;28;20266;-91
2022/02/23 00:52:56;;;;;;;3.33;1.67;;;6.30;97.30;;;;;;5036424;28;20533;-91
2022/02/23 00:55:22;;;;;;;10.53;1.80;;;6.20;97.30;;;;;;5036442;28;20868;-91
2022/02/23 00:57:47;;;;;;;4.03;2.10;;;6.20;97.30;;;;;;5035762;28;20210;-92
2022/02/23 01:00:13;;;;;;;12.37;2.23;;;6.20;97.30;;;;;;5035893;28;20207;-91
2022/02/23 01:02:40;;;;;;;9.77;2.00;;;6.10;97.30;;;;;;5036070;28;20180;-91
2022/02/23 01:05:06;;;;;;;7.33;2.17;;;6.10;97.30;;;;;;5035786;28;20422;-91
2022/02/23 01:07:32;;;;;;;7.17;3.30;;;6.10;97.30;;;;;;5035724;28;20430;-91
2022/02/23 01:09:57;;;;;;;11.27;1.73;;;6.10;97.30;;;;;;5035733;28;21007;-92
2022/02/23 01:12:23;;;;;;;7.37;2.00;;;6.00;97.30;;;;;;5035733;28;20184;-91
2022/02/23 01:14:49;;;;;;;20.80;2.63;;;6.00;97.30;;;;;;5035490;28;20262;-91
2022/02/23 01:17:14;;;;;;;4.43;1.60;;;6.00;97.30;;;;;;5035634;28;20730;-91
2022/02/23 01:19:40;;;;;;;7.37;2.13;;;6.00;97.30;;;;;;5053523;28;20213;-91
2022/02/23 01:22:05;;;;;;;13.73;1.90;;;6.00;97.30;;;;;;5035286;28;20175;-91
2022/02/23 01:24:31;;;;;;;6.83;1.60;;;6.00;97.30;;;;;;5035069;28;20176;-91
2022/02/23 01:26:56;;;;;;;6.60;1.77;;;6.00;97.30;;;;;;5035958;28;20227;-91
2022/02/23 01:29:22;;;;;;;9.73;1.90;;;6.00;97.30;;;;;;5035646;28;20176;-91
2022/02/23 01:31:48;;;;;;;11.10;1.93;;;6.00;97.30;;;;;;5035225;28;20179;-92
2022/02/23 01:34:13;;;;;;;6.13;1.60;;;6.00;97.30;;;;;;5035361;28;20242;-92
2022/02/23 01:36:38;;;;;;;11.23;4.40;;;6.00;97.30;;;;;;5052718;28;20178;-90
2022/02/23 01:39:04;;;;;;;4.20;1.50;;;6.00;97.30;;;;;;5034911;28;20184;-91
2022/02/23 01:41:30;;;;;;;12.83;2.27;;;6.00;97.30;;;;;;5034733;28;20203;-90
2022/02/23 01:43:55;;;;;;;8.90;1.77;;;5.90;97.30;;;;;;5034785;28;20207;-90
2022/02/23 01:46:21;;;;;;;5.33;1.93;;;6.00;97.30;;;;;;5034827;28;20173;-91
2022/02/23 01:48:47;;;;;;;7.00;1.70;;;6.00;97.30;;;;;;5034588;28;20586;-92
2022/02/23 01:51:13;;;;;;;10.50;1.80;;;6.00;97.30;;;;;;5052858;28;20654;-91
2022/02/23 01:53:38;;;;;;;11.23;1.63;;;6.00;97.30;;;;;;5034652;28;20425;-91
2022/02/23 01:56:04;;;;;;;5.60;1.53;;;5.90;97.30;;;;;;5034829;28;20594;-91
2022/02/23 01:58:30;;;;;;;8.37;1.60;;;5.90;97.30;;;;;;5038624;28;20196;-91
2022/02/23 02:00:57;;;;;;;7.17;1.83;;;5.80;97.30;;;;;;5037879;28;20590;-92
2022/02/23 02:03:23;;;;;;;5.23;2.00;;;5.80;97.30;;;;;;5035061;28;20417;-92
2022/02/23 02:05:48;;;;;;;8.83;1.70;;;5.70;97.30;;;;;;5034912;28;20511;-92
2022/02/23 02:08:14;;;;;;;7.10;1.80;;;5.70;97.30;;;;;;5034170;28;20850;-92
2022/02/23 02:10:39;;;;;;;7.97;1.53;;;5.70;97.30;;;;;;5033980;28;20176;-91
2022/02/23 02:13:05;;;;;;;5.33;1.80;;;5.70;97.30;;;;;;5034086;28;20266;-91
2022/02/23 02:15:30;;;;;;;10.27;1.73;;;5.70;97.30;;;;;;5052209;28;20263;-92
2022/02/23 02:17:56;;;;;;;5.70;1.67;;;5.60;97.30;;;;;;5034528;28;20208;-91
2022/02/23 02:20:21;;;;;;;2.70;1.30;;;5.60;97.30;;;;;;5034229;28;20249;-91
2022/02/23 02:22:47;;;;;;;5.90;2.10;;;5.60;97.30;;;;;;5034504;28;20168;-92
2022/02/23 02:25:12;;;;;;;13.43;1.50;;;5.50;97.30;;;;;;5034286;28;20171;-92
2022/02/23 02:27:38;;;;;;;4.53;1.50;;;5.50;97.30;;;;;;5034021;28;20226;-92
2022/02/23 02:30:05;;;;;;;5.50;1.40;;;5.50;97.30;;;;;;5033931;28;20634;-92
2022/02/23 02:32:31;;;;;;;11.23;1.60;;;5.50;97.30;;;;;;5033724;28;20176;-91
2022/02/23 02:34:56;;;;;;;2.83;1.50;;;5.50;97.30;;;;;;5034035;28;20421;-91
2022/02/23 02:37:22;;;;;;;4.23;1.50;;;5.50;97.30;;;;;;5034099;28;20670;-91
2022/02/23 02:39:47;;;;;;;5.47;1.57;;;5.50;97.30;;;;;;5034159;28;20241;-92
2022/02/23 02:42:13;;;;;;;5.83;2.97;;;5.40;97.30;;;;;;5052142;28;20183;-92
2022/02/23 02:44:38;;;;;;;6.57;1.40;;;5.50;97.30;;;;;;5034091;28;20179;-92
2022/02/23 02:47:04;;;;;;;8.20;1.83;;;5.50;97.30;;;;;;5033940;28;20259;-92
2022/02/23 02:49:30;;;;;;;3.70;2.10;;;5.50;97.30;;;;;;5034367;28;20696;-93
2022/02/23 02:51:55;;;;;;;8.53;2.33;;;5.50;97.30;;;;;;5033960;28;20184;-92
2022/02/23 02:54:21;;;;;;;11.23;2.70;;;5.50;97.30;;;;;;5033527;28;20241;-92
2022/02/23 02:56:47;;;;;;;5.80;1.50;;;5.50;97.30;;;;;;5033598;28;20199;-92
2022/02/23 02:59:21;;;;;;;9.30;1.73;;;5.50;97.30;;;;;;5034097;28;20207;-90
2022/02/23 03:01:50;;;;;;;7.43;1.90;;;5.50;97.30;;;;;;5033968;28;20610;-91
2022/02/23 03:04:19;;;;;;;6.83;2.20;;;5.60;97.30;;;;;;5033877;28;20498;-92
2022/02/23 03:06:48;;;;;;;3.10;1.60;;;5.60;97.30;;;;;;5033963;28;20450;-92
2022/02/23 03:09:13;;;;;;;4.97;1.90;;;5.60;97.30;;;;;;5034029;28;20803;-91
2022/02/23 03:11:39;;;;;;;5.00;1.53;;;5.60;97.30;;;;;;5033871;28;20422;-91
2022/02/23 03:14:08;;;;;;;11.70;2.20;;;5.60;97.30;;;;;;5033933;28;20183;-92
2022/02/23 03:16:35;;;;;;;13.20;2.53;;;5.60;97.30;;;;;;5034386;28;20654;-92
2022/02/23 03:19:09;;;;;;;10.00;1.80;;;5.60;97.30;;;;;;5033491;28;20426;-92
2022/02/23 03:21:36;;;;;;;9.77;1.50;;;5.60;97.30;;;;;;5033438;28;20500;-91
2022/02/23 03:24:07;;;;;;;13.53;2.13;;;5.60;97.30;;;;;;5033331;28;20509;-92
2022/02/23 03:26:40;;;;;;;7.30;2.07;;;5.50;97.30;;;;;;5054054;28;20482;-91
2022/02/23 03:29:08;;;;;;;8.37;1.73;;;5.50;97.30;;;;;;5037608;28;20415;-91
2022/02/23 03:31:37;;;;;;;10.73;2.87;;;5.50;97.30;;;;;;5037419;28;21124;-91
2022/02/23 03:34:10;;;;;;;10.23;2.40;;;5.50;97.30;;;;;;5037231;28;20514;-91
2022/02/23 03:36:39;;;;;;;10.00;1.70;;;5.50;97.30;;;;;;5037322;28;20410;-91
2022/02/23 03:39:07;;;;;;;12.40;2.90;;;5.50;97.30;;;;;;5036956;28;20406;-92
2022/02/23 03:41:38;;;;;;;9.30;2.20;;;5.50;97.30;;;;;;5036954;28;20515;-91
2022/02/23 03:44:06;;;;;;;12.80;2.30;;;5.50;97.30;;;;;;5039874;28;20438;-92
2022/02/23 03:46:39;;;;;;;15.03;2.03;;;5.50;97.30;;;;;;5037375;28;20494;-91
2022/02/23 03:49:07;;;;;;;5.20;1.90;;;5.50;97.30;;;;;;5049282;28;20430;-91
2022/02/23 03:51:35;;;;;;;18.17;3.20;;;5.50;97.30;;;;;;5054544;28;20419;-92
2022/02/23 03:54:09;;;;;;;5.00;1.73;;;5.50;97.30;;;;;;5036847;28;20422;-91
2022/02/23 03:56:39;;;;;;;9.97;2.00;;;5.50;97.30;;;;;;5037024;28;20775;-92
2022/02/23 03:59:11;;;;;;;3.80;1.90;;;5.60;97.30;;;;;;5054993;28;20477;-91
2022/02/23 04:01:39;;;;;;;8.17;2.50;;;5.60;97.30;;;;;;5046013;28;20486;-92
2022/02/23 04:04:06;;;;;;;13.50;2.90;;;5.60;97.30;;;;;;5053072;28;20414;-92
2022/02/23 04:06:32;;;;;;;8.97;2.30;;;5.60;97.30;;;;;;5053002;28;21098;-91
2022/02/23 04:08:59;;;;;;;11.43;2.10;;;5.60;97.30;;;;;;5053526;28;20435;-92
2022/02/23 04:11:24;;;;;;;9.17;1.70;;;5.60;97.30;;;;;;5053049;28;20793;-92
2022/02/23 04:13:50;;;;;;;6.30;2.10;;;5.60;97.30;;;;;;5052980;28;20419;-92
2022/02/23 04:16:15;;;;;;;8.10;2.20;;;5.60;97.30;;;;;;5054054;28;20183;-92
2022/02/23 04:18:44;;;;;;;10.23;2.50;;;5.60;97.30;;;;;;5053395;28;20568;-91
2022/02/23 04:21:10;;;;;;;15.30;3.00;;;5.60;97.30;;;;;;5053550;28;20672;-91
2022/02/23 04:23:35;;;;;;;4.73;2.30;;;5.60;97.30;;;;;;5052667;28;20442;-91
2022/02/23 04:26:01;;;;;;;12.37;3.30;;;5.60;97.30;;;;;;5052929;28;20465;-91
2022/02/23 04:28:28;;;;;;;15.00;2.53;;;5.60;97.30;;;;;;5053036;28;20191;-92
2022/02/23 04:30:55;;;;;;;6.77;2.00;;;5.60;97.30;;;;;;5052982;28;20713;-92
2022/02/23 04:33:22;;;;;;;9.33;2.27;;;5.60;97.30;;;;;;5053187;28;20909;-92
2022/02/23 04:35:48;;;;;;;9.57;3.90;;;5.60;97.30;;;;;;5052446;28;20434;-91
2022/02/23 04:38:16;;;;;;;16.37;2.33;;;5.60;97.30;;;;;;5052689;28;20499;-91
2022/02/23 04:40:50;;;;;;;6.80;2.10;;;5.60;97.30;;;;;;5052588;28;20215;-91
2022/02/23 04:43:16;;;;;;;6.67;1.97;;;5.60;97.30;;;;;;5052419;28;20464;-92
2022/02/23 04:45:42;;;;;;;15.00;2.70;;;5.60;97.30;;;;;;5052457;28;20417;-92
2022/02/23 04:48:08;;;;;;;8.23;2.33;;;5.60;97.30;;;;;;5052085;28;20508;-91
2022/02/23 04:50:34;;;;;;;8.60;2.10;;;5.60;97.30;;;;;;5052326;28;20489;-91
2022/02/23 04:52:59;;;;;;;8.90;1.80;;;5.60;97.30;;;;;;5041169;28;20904;-91
2022/02/23 04:55:27;;;;;;;10.00;2.57;;;5.60;97.30;;;;;;5035897;28;20183;-92
2022/02/23 04:57:53;;;;;;;7.57;2.70;;;5.60;97.30;;;;;;5035846;28;20219;-93
2022/02/23 05:00:18;;;;;;;8.60;2.50;;;5.60;97.30;;;;;;5035962;28;20947;-92
2022/02/23 05:02:44;;;;;;;5.30;2.00;;;5.60;97.30;;;;;;5035991;28;20186;-92
2022/02/23 05:05:10;;;;;;;19.30;3.00;;;5.60;97.30;;;;;;5036027;28;20206;-91
2022/02/23 05:07:36;;;;;;;12.33;2.43;;;5.60;97.30;;;;;;5036023;28;20246;-92
2022/02/23 05:10:03;;;;;;;17.93;2.40;;;5.60;97.30;;;;;;5035583;28;20422;-92
2022/02/23 05:12:30;;;;;;;11.40;2.37;;;5.50;97.30;;;;;;5053677;28;20257;-92
2022/02/23 05:14:55;;;;;;;10.77;2.40;;;5.60;97.30;;;;;;5035778;28;20893;-92
2022/02/23 05:17:21;;;;;;;17.43;3.13;;;5.60;97.30;;;;;;5035683;28;20454;-91
2022/02/23 05:19:47;;;;;;;18.53;4.03;;;5.60;97.30;;;;;;5053586;28;20246;-91
2022/02/23 05:22:13;;;;;;;12.20;2.80;;;5.50;97.30;;;;;;5035768;28;20172;-91
2022/02/23 05:24:38;;;;;;;9.80;2.63;;;5.50;97.30;;;;;;5035762;28;20421;-92
2022/02/23 05:27:07;;;;;;;8.40;2.73;;;5.50;97.30;;;;;;5035741;28;20218;-91
2022/02/23 05:29:33;;;;;;;10.33;2.43;;;5.50;97.30;;;;;;5035435;28;20183;-91
2022/02/23 05:31:58;;;;;;;13.23;3.33;;;5.50;97.30;;;;;;5035542;28;20410;-91
2022/02/23 05:34:26;;;;;;;13.10;2.20;;;5.50;97.30;;;;;;5035428;28;20176;-92
2022/02/23 05:36:52;;;;;;;7.60;2.10;;;5.50;97.30;;;;;;5035468;28;20206;-91
2022/02/23 05:39:18;;;;;;;10.63;2.37;;;5.40;97.30;;;;;;5035787;28;20920;-91
2022/02/23 05:41:46;;;;;;;7.97;2.77;;;5.40;97.30;;;;;;5035213;28;20210;-91
2022/02/23 05:44:14;;;;;;;10.73;2.60;;;5.40;97.30;;;;;;5035467;28;20419;-92
2022/02/23 05:46:40;;;;;;;10.20;3.33;;;5.40;97.30;;;;;;5019774;28;20419;-92
2022/02/23 05:49:05;;;;;;;11.50;2.53;;;5.30;97.30;;;;;;5028527;28;20426;-92
2022/02/23 05:51:37;;;;;;;7.40;2.17;;;5.30;97.30;;;;;;5034649;28;20677;-92
2022/02/23 05:54:04;;;;;;;10.10;2.03;;;5.40;97.30;;;;;;5034634;28;20403;-92
2022/02/23 05:56:30;;;;;;;9.70;2.40;;;5.40;97.30;;;;;;5035323;28;20916;-92
2022/02/23 05:58:55;;;;;;;6.77;2.30;;;5.40;97.30;;;;;;5035139;28;20414;-92
2022/02/23 06:01:28;;;;;;;12.90;2.50;;;5.40;97.30;;;;;;5034802;28;20473;-91
2022/02/23 06:03:54;;;;;;;20.20;2.90;;;5.40;97.30;;;;;;5034995;28;20175;-91
2022/02/23 06:06:19;;;;;;;11.47;2.17;;;5.40;97.30;;;;;;5035257;28;21233;-91
2022/02/23 06:08:45;;;;;;;14.00;3.40;;;5.40;97.30;;;;;;5034737;28;20199;-92
2022/02/23 06:11:13;;;;;;;15.57;2.87;;;5.50;97.30;;;;;;5034938;28;20237;-92
2022/02/23 06:13:39;;;;;;;16.30;3.10;;;5.50;97.30;;;;;;5035074;28;20180;-91
2022/02/23 06:16:05;;;;;;;11.17;2.50;;;5.50;97.30;;;;;;5049721;28;20454;-91
2022/02/23 06:18:30;;;;;;;14.97;2.60;;;5.50;97.30;;;;;;5031265;28;20208;-91
2022/02/23 06:20:56;;;;;;;11.67;2.43;;;5.50;97.30;;;;;;5015123;28;20552;-91
2022/02/23 06:23:23;;;;;;;9.33;2.00;;;5.50;97.30;;;;;;5014755;28;20226;-91
2022/02/23 06:25:49;;;;;;;7.73;2.50;;;5.50;97.30;;;;;;5014742;28;20188;-91
2022/02/23 06:28:14;;;;;;;7.17;2.53;;;5.60;97.30;;;;;;5032238;28;20435;-91
2022/02/23 06:30:41;;;;;;;11.63;3.00;;;5.50;97.30;;;;;;5014901;28;20422;-91
2022/02/23 06:33:06;;;;;;;24.10;2.60;;;5.60;97.30;;;;;;5015022;28;20427;-91
2022/02/23 06:35:33;;;;;;;11.03;2.73;;;5.60;97.30;;;;;;5042349;28;20803;-92
2022/02/23 06:37:58;;;;;;;8.97;2.40;;;5.60;97.30;;;;;;5054454;28;20195;-91
2022/02/23 06:40:24;;;;;;;5.93;2.50;;;5.60;97.30;;;;;;5041526;28;20511;-91
2022/02/23 06:42:50;;;;;;;6.40;2.43;;;5.60;97.30;;;;;;5034827;28;20176;-91
2022/02/23 06:45:15;;;;;;;8.43;2.40;;;5.60;97.30;;;;;;5034164;28;20179;-91
2022/02/23 06:47:41;;;;;;;12.50;2.13;;;5.60;97.30;;;;;;5034428;28;20254;-91
2022/02/23 06:50:07;;;;;;;12.40;2.30;;;5.60;97.30;;;;;;5034366;28;20186;-91
2022/02/23 06:52:35;;;;;;;8.20;2.30;;;5.60;97.30;;;;;;5034771;28;20796;-92
2022/02/23 06:55:01;;;;;;;8.67;2.40;;;5.70;97.30;;;;;;5034606;28;20570;-91
2022/02/23 06:57:36;;;;;;;7.80;2.80;;;5.70;97.30;;;;;;5052334;28;20963;-92
2022/02/23 07:00:06;;;;;;;3.93;2.03;;;5.70;97.30;;;;;;5036672;28;20507;-92
2022/02/23 07:02:33;;;;;;;8.73;2.90;;;5.80;97.30;;;;;;5038326;28;20901;-92
2022/02/23 07:04:58;;;;;;;16.17;3.10;;;5.80;97.30;;;;;;5037642;28;20426;-92
2022/02/23 07:07:24;;;;;;;16.50;2.20;;;5.80;97.30;;;;;;5038357;28;20446;-92
2022/02/23 07:09:50;;;;;;;7.13;2.10;;;5.80;97.30;;;;;;5038353;28;20172;-92
2022/02/23 07:12:16;;;;;;;5.23;1.70;;;5.80;97.30;;;;;;5038661;28;20904;-93
2022/02/23 07:14:42;;;;;;;11.67;2.63;;;5.90;97.30;;;;;;5038503;28;20594;-92
2022/02/23 07:17:07;;;;;;;8.37;2.50;;;5.90;97.30;;;;;;5038579;28;20418;-92
2022/02/23 07:19:38;;;;;;;5.70;2.50;;;5.90;97.30;;;;;;5038642;28;20667;-92
2022/02/23 07:22:06;;;;;;;22.30;3.20;;;5.90;97.30;;;;;;5038406;28;20668;-92
2022/02/23 07:24:34;;;;;;;14.47;3.50;;;6.00;97.30;;;;;;5031719;28;20415;-91
2022/02/23 07:27:00;;;;;;;11.80;3.80;;;6.00;97.30;;;;;;5029340;28;20448;-92
2022/02/23 07:29:28;;;;;;;15.93;4.90;;;6.10;97.30;;;;;;5038373;28;20406;-93
2022/02/23 07:31:54;;;;;;;10.30;3.27;;;6.10;97.30;;;;;;5037820;28;20195;-92
2022/02/23 07:34:19;;;;;;;24.97;6.33;;;6.10;97.30;;;;;;5034566;28;20419;-92
2022/02/23 07:36:49;;;;;;;14.07;3.90;;;6.10;97.30;;;;;;5029127;28;20199;-93
2022/02/23 07:39:14;;;;;;;19.87;3.83;;;6.10;97.30;;;;;;5032685;28;20173;-92
2022/02/23 07:41:40;;;;;;;11.23;3.33;;;6.10;97.30;;;;;;5018712;28;20463;-92
2022/02/23 07:44:06;;;;;;;9.87;3.17;;;6.20;97.30;;;;;;5030250;28;20187;-92
2022/02/23 07:46:31;;;;;;;8.27;2.80;;;6.20;97.30;;;;;;5037986;28;20194;-92
2022/02/23 07:49:00;;;;;;;9.93;3.40;;;6.20;97.30;;;;;;5028371;28;20196;-92
2022/02/23 07:51:27;;;;;;;12.13;2.87;;;6.10;97.30;;;;;;5020649;28;20187;-91
2022/02/23 07:53:55;;;;;;;7.27;3.40;;;6.10;97.30;;;;;;5038305;28;20426;-91
2022/02/23 07:56:21;;;;;;;16.03;2.67;;;6.20;97.30;;;;;;5034195;28;20435;-92
2022/02/23 07:58:48;;;;;;;10.30;3.13;;;6.30;97.30;;;;;;5028884;28;20442;-91
2022/02/23 08:01:27;;;;;;;9.10;2.77;;;6.40;97.30;;;;;;5038444;28;20466;-92
2022/02/23 08:03:53;;;;;;;13.90;2.70;;;6.40;97.30;;;;;;5038083;28;20453;-93
2022/02/23 08:06:18;;;;;;;5.43;3.13;;;6.40;97.30;;;;;;5038313;28;20422;-92
2022/02/23 08:08:44;;;;;;;10.13;2.80;;;6.50;97.30;;;;;;5038310;28;20218;-93
2022/02/23 08:11:09;;;;;;;9.40;4.60;;;6.50;97.30;;;;;;5056611;28;20188;-92
2022/02/23 08:13:35;;;;;;;12.13;4.80;;;6.50;97.30;;;;;;5056045;28;20188;-93
2022/02/23 08:21:31;;;;;;;18.60;4.60;;;6.60;97.30;;;;;;5056040;28;20472;-92
2022/02/23 08:24:22;;;;;;;16.50;7.10;;;6.60;97.30;;;;;;5037720;28;20453;-92
2022/02/23 08:26:50;;;;;;;19.40;10.07;;;6.70;97.30;;;;;;5037650;28;20426;-93
2022/02/23 08:29:19;;;;;;;8.67;5.80;;;6.70;97.30;;;;;;5038186;28;20506;-94
2022/02/23 08:31:47;;;;;;;19.97;2.97;;;6.80;97.30;;;;;;5037455;28;20956;-93
2022/02/23 08:34:20;;;;;;;14.47;4.20;;;6.90;97.30;;;;;;5034869;28;20430;-92
2022/02/23 08:37:01;;;;;;;14.67;5.50;;;6.90;97.30;;;;;;5029046;28;20455;-93
2022/02/23 08:39:29;;;;;;;14.00;5.37;;;6.90;97.30;;;;;;5028756;28;20442;-92
2022/02/23 08:41:58;;;;;;;8.90;2.90;;;7.00;97.30;;;;;;5031826;28;20466;-92
2022/02/23 08:44:26;;;;;;;16.30;3.80;;;7.00;97.30;;;;;;5029863;28;20790;-92
2022/02/23 08:46:59;;;;;;;20.00;5.83;;;7.10;97.30;;;;;;5026195;28;20478;-91
2022/02/23 08:49:29;;;;;;;10.10;3.90;;;7.10;97.30;;;;;;5029881;28;20481;-92
2022/02/23 08:51:57;;;;;;;8.73;2.87;;;7.20;97.30;;;;;;5036981;28;20790;-92
2022/02/23 08:54:28;;;;;;;10.50;4.73;;;7.30;97.30;;;;;;5034595;28;20464;-92
2022/02/23 08:56:57;;;;;;;6.33;1.80;;;7.40;97.30;;;;;;5028650;28;20443;-92
2022/02/23 08:59:31;;;;;;;5.30;2.17;;;7.40;97.30;;;;;;5024846;28;20494;-92
2022/02/23 09:01:57;;;;;;;5.90;2.27;;;7.40;97.30;;;;;;5034541;28;20628;-92
2022/02/23 09:04:24;;;;;;;14.70;2.70;;;7.40;97.30;;;;;;5034327;28;20952;-92
2022/02/23 09:06:50;;;;;;;8.80;3.10;;;7.40;97.30;;;;;;5027891;28;20215;-92
2022/02/23 09:09:15;;;;;;;9.10;3.87;;;7.40;97.30;;;;;;5030652;28;21220;-92
2022/02/23 09:11:47;;;;;;;9.70;3.73;;;7.30;97.20;;;;;;5029087;28;20195;-93
2022/02/23 09:14:16;;;;;;;5.87;2.87;;;7.30;97.30;;;;;;5027125;28;20188;-92
2022/02/23 09:16:47;;;;;;;7.93;4.83;;;7.50;97.10;;;;;;5035197;28;20514;-92
2022/02/23 09:19:15;;;;;;;5.53;2.40;;;7.80;97.10;;;;;;5034324;28;20447;-92
2022/02/23 09:21:41;;;;;;;8.17;4.17;;;8.00;95.90;;;;;;5032532;28;20461;-92
2022/02/23 09:24:07;;;;;;;9.30;2.10;;;8.20;95.70;;;;;;5020455;28;20908;-92
2022/02/23 09:26:41;;;;;;;11.60;2.13;;;8.30;94.60;;;;;;5031525;28;20211;-92
2022/02/23 09:29:08;;;;;;;15.03;2.37;;;8.30;93.90;;;;;;5051482;28;20453;-92
2022/02/23 09:31:37;;;;;;;7.10;2.57;;;8.30;93.70;;;;;;5020344;28;20576;-92
2022/02/23 09:34:07;;;;;;;13.67;3.70;;;8.30;93.20;;;;;;5027066;28;20462;-91
2022/02/23 09:36:41;;;;;;;20.93;3.60;;;8.20;92.90;;;;;;5037920;28;20947;-91
2022/02/23 09:39:09;;;;;;;9.30;2.33;;;8.30;92.20;;;;;;5027804;28;20423;-92
2022/02/23 09:41:47;;;;;;;8.70;3.60;;;8.20;92.30;;;;;;5029351;28;20450;-91
2022/02/23 09:44:18;;;;;;;13.07;3.97;;;8.10;92.10;;;;;;5026982;28;20546;-91
2022/02/23 09:46:45;;;;;;;13.33;3.30;;;8.30;92.70;;;;;;5028272;28;21576;-93
2022/02/23 09:49:18;;;;;;;10.20;3.07;;;8.40;92.30;;;;;;5029284;28;20430;-91
2022/02/23 09:51:46;;;;;;;12.67;3.23;;;8.40;91.80;;;;;;5033274;28;20444;-92
2022/02/23 09:54:14;;;;;;;12.97;5.30;;;8.50;92.00;;;;;;5035141;28;20426;-92
2022/02/23 09:56:40;;;;;;;5.80;1.97;;;8.50;92.10;;;;;;5032471;28;20423;-92
2022/02/23 09:59:09;;;;;;;10.93;3.50;;;8.40;91.40;;;;;;5026283;28;20429;-91
2022/02/23 10:01:37;;;;;;;11.87;3.53;;;8.30;92.10;;;;;;5046031;28;20200;-92
2022/02/23 10:04:03;;;;;;;7.33;2.47;;;8.30;92.50;;;;;;5030292;28;20438;-92
2022/02/23 10:06:30;;;;;;;23.57;3.90;;;8.20;91.40;;;;;;5031134;28;20431;-92
2022/02/23 10:09:08;;;;;;;12.53;2.47;;;8.10;92.40;;;;;;5025715;28;20190;-92
2022/02/23 10:11:35;;;;;;;17.80;8.83;;;8.10;93.10;;;;;;5029344;28;20970;-91
2022/02/23 10:14:04;;;;;;;14.50;5.80;;;8.20;93.70;;;;;;5020967;28;20468;-91
2022/02/23 10:16:43;;;;;;;6.10;1.90;;;8.20;93.30;;;;;;5038921;28;20425;-91
2022/02/23 10:19:18;;;;;;;17.27;2.70;;;8.20;92.50;;;;;;5034764;28;20513;-91
2022/02/23 10:21:51;;;;;;;11.63;5.77;;;8.30;92.30;;;;;;5049016;28;20472;-92
2022/02/23 10:24:34;;;;;;;15.13;5.50;;;8.60;92.60;;;;;;5015929;28;20423;-92
2022/02/23 10:27:09;;;;;;;13.57;3.97;;;9.00;91.90;;;;;;5029970;28;20433;-92
2022/02/23 10:29:45;;;;;;;17.20;3.97;;;9.20;90.90;;;;;;5032695;28;20414;-92
2022/02/23 10:32:11;;;;;;;6.20;4.40;;;9.20;90.20;;;;;;5019316;28;20437;-91
2022/02/23 10:34:43;;;;;;;12.87;2.30;;;9.10;89.80;;;;;;5020264;28;20407;-92
2022/02/23 10:37:09;;;;;;;8.63;3.00;;;9.10;90.20;;;;;;5020534;28;20801;-92
2022/02/23 10:39:44;;;;;;;10.63;3.70;;;9.30;90.20;;;;;;5030609;28;20958;-91
2022/02/23 10:42:19;;;;;;;8.87;4.40;;;9.40;89.90;;;;;;5033361;28;21011;-92
2022/02/23 10:44:47;;;;;;;11.60;3.17;;;9.40;89.80;;;;;;5036017;28;20453;-92
2022/02/23 10:47:33;;;;;;;13.97;4.80;;;9.50;89.10;;;;;;5020352;28;20510;-93
2022/02/23 10:50:01;;;;;;;22.60;3.80;;;9.50;89.10;;;;;;5029997;28;20792;-92
2022/02/23 10:52:32;;;;;;;14.23;4.03;;;9.60;89.30;;;;;;5033754;28;20418;-92
2022/02/23 10:55:11;;;;;;;12.17;3.40;;;9.70;89.90;;;;;;5034993;28;20415;-91
2022/02/23 10:57:45;;;;;;;8.77;2.17;;;9.80;88.30;;;;;;5035542;28;20512;-92
2022/02/23 11:00:16;;;;;;;8.60;2.87;;;9.80;87.90;;;;;;5032236;28;20489;-92
2022/02/23 11:02:41;;;;;;;7.43;2.80;;;9.90;88.10;;;;;;5046398;28;20935;-91
2022/02/23 11:05:07;;;;;;;10.10;3.07;;;9.80;88.10;;;;;;5053101;28;20509;-91
2022/02/23 11:07:33;;;;;;;17.40;5.30;;;9.80;88.50;;;;;;5031763;28;20232;-92
2022/02/23 11:09:58;;;;;;;12.90;5.93;;;9.70;87.40;;;;;;5035225;28;20202;-91
2022/02/23 11:12:25;;;;;;;25.57;8.27;;;9.70;88.10;;;;;;5035136;28;20179;-92
2022/02/23 11:14:51;;;;;;;16.73;6.17;;;9.90;87.50;;;;;;5027942;28;20275;-92
2022/02/23 11:17:18;;;;;;;27.37;9.10;;;9.90;86.90;;;;;;5021456;28;20450;-92
2022/02/23 11:19:45;;;;;;;18.03;5.60;;;9.90;87.10;;;;;;5027225;28;20446;-92
2022/02/23 11:22:11;;;;;;;15.07;4.43;;;10.00;87.10;;;;;;5020622;28;20457;-92
2022/02/23 11:24:39;;;;;;;9.40;4.03;;;10.20;87.00;;;;;;5032773;28;20441;-92
2022/02/23 11:27:12;;;;;;;6.20;2.07;;;10.20;86.40;;;;;;5022056;28;20439;-92
2022/02/23 11:30:04;;;;;;;5.30;2.10;;;10.30;86.00;;;;;;5016959;28;20502;-92
2022/02/23 11:32:31;;;;;;;15.90;5.33;;;10.40;85.40;;;;;;5024512;28;20991;-91
2022/02/23 11:34:56;;;;;;;18.13;6.33;;;10.30;85.60;;;;;;5034118;28;20419;-92
2022/02/23 11:37:22;;;;;;;8.70;4.27;;;10.30;86.50;;;;;;5035977;28;20769;-92
2022/02/23 11:39:50;;;;;;;7.37;3.80;;;10.30;85.20;;;;;;5036114;28;20188;-91
2022/02/23 11:42:23;;;;;;;8.20;3.10;;;10.20;85.30;;;;;;5035044;28;20210;-92
2022/02/23 11:44:50;;;;;;;3.60;1.97;;;10.30;86.20;;;;;;5033434;28;21135;-91
2022/02/23 11:47:25;;;;;;;14.80;3.60;;;10.30;86.00;;;;;;5031966;28;20472;-91
2022/02/23 11:49:56;;;;;;;12.40;3.90;;;10.30;85.80;;;;;;5039230;28;20432;-92
2022/02/23 11:52:23;;;;;;;10.23;3.77;;;10.40;85.90;;;;;;5038774;28;21075;-92
2022/02/23 11:54:55;;;;;;;8.90;2.20;;;10.80;86.10;;;;;;5038343;28;20406;-91
2022/02/23 11:57:37;;;;;;;8.40;2.57;;;11.00;85.50;;;;;;5038903;28;20426;-91
2022/02/23 12:00:06;;;;;;;4.27;2.40;;;11.00;84.00;;;;;;5035242;28;20422;-91
2022/02/23 12:02:32;;;;;;;3.90;2.00;;;11.00;82.70;;;;;;5029639;28;20419;-92
2022/02/23 12:04:59;;;;;;;7.87;2.70;;;11.20;83.40;;;;;;5035321;28;20983;-92
2022/02/23 12:07:43;;;;;;;5.20;2.33;;;11.50;84.10;;;;;;5028805;28;20530;-90
2022/02/23 12:10:09;;;;;;;9.37;2.30;;;11.60;83.00;;;;;;5032956;28;20418;-90
2022/02/23 12:12:39;;;;;;;4.90;2.00;;;11.60;81.90;;;;;;5038667;28;20422;-91
2022/02/23 12:15:07;;;;;;;8.00;2.10;;;11.60;81.00;;;;;;5035316;28;20512;-90
2022/02/23 12:18:00;;;;;;;7.33;3.03;;;11.60;80.90;;;;;;5037177;28;20497;-91
2022/02/23 12:20:43;;;;;;;7.27;3.13;;;11.90;82.30;;;;;;5038127;28;20458;-91
2022/02/23 12:23:12;;;;;;;7.40;2.40;;;11.80;82.10;;;;;;5022553;28;21208;-91
2022/02/23 12:25:56;;;;;;;9.83;1.90;;;11.90;80.50;;;;;;5037868;28;20418;-90
2022/02/23 12:28:26;;;;;;;3.60;2.00;;;11.90;80.90;;;;;;5037697;28;20457;-91
2022/02/23 12:31:12;;;;;;;5.40;2.40;;;12.00;80.30;;;;;;5031987;28;20979;-91
2022/02/23 12:33:39;;;;;;;10.50;4.10;;;12.00;80.20;;;;;;5032664;28;20437;-91
2022/02/23 12:36:07;;;;;;;8.07;1.80;;;11.80;80.90;;;;;;5036317;28;20540;-91
2022/02/23 12:38:35;;;;;;;8.33;2.80;;;11.90;81.10;;;;;;5035204;28;20434;-91
2022/02/23 12:41:12;;;;;;;12.80;5.97;;;12.10;81.10;;;;;;5047404;28;20458;-91
2022/02/23 12:43:38;;;;;;;5.00;2.60;;;12.00;80.80;;;;;;5033525;28;20479;-90
2022/02/23 12:46:08;;;;;;;9.17;4.10;;;12.30;80.60;;;;;;5017640;28;20926;-92
2022/02/23 12:48:35;;;;;;;7.70;2.43;;;12.70;80.60;;;;;;5017967;28;20463;-90
2022/02/23 12:51:09;;;;;;;3.47;1.53;;;12.70;78.10;;;;;;5028465;28;20434;-91
2022/02/23 12:53:50;;;;;;;6.23;1.80;;;12.50;77.20;;;;;;5037322;28;20421;-91
2022/02/23 12:56:32;;;;;;;5.27;2.03;;;12.60;77.60;;;;;;5017278;28;20419;-91
2022/02/23 12:59:00;;;;;;;3.43;2.03;;;11.90;77.10;;;;;;5017116;28;20537;-92
2022/02/23 13:01:32;;;;;;;9.40;2.13;;;11.60;78.70;;;;;;5017196;28;20455;-91